sensor_id;sensor_type;location;lat;lon;timestamp;P1;durP1;ratioP1;P2;durP2;ratioP2
6109;SDS011;3085;49.444;11.054;2023-05-07T00:02:16;3.60;;;2.30;;
6109;SDS011;3085;49.444;11.054;2023-05-07T00:04:42;7.43;;;2.40;;
6109;SDS011;3085;49.444;11.054;2023-05-07T00:07:11;3.00;;;1.90;;
6109;SDS011;3085;49.444;11.054;2023-05-07T00:09:38;3.00;;;1.90;;
6109;SDS011;3085;49.444;11.054;2023-05-07T00:12:05;2.70;;;1.80;;
6109;SDS011;3085;49.444;11.054;2023-05-07T00:14:32;5.70;;;2.07;;
6109;SDS011;3085;49.444;11.054;2023-05-07T00:16:59;3.60;;;2.07;;
6109;SDS011;3085;49.444;11.054;2023-05-07T00:19:26;3.90;;;1.73;;
6109;SDS011;3085;49.444;11.054;2023-05-07T00:21:53;2.87;;;2.00;;
6109;SDS011;3085;49.444;11.054;2023-05-07T00:24:22;3.97;;;2.00;;
6109;SDS011;3085;49.444;11.054;2023-05-07T00:26:49;2.20;;;1.90;;
6109;SDS011;3085;49.444;11.054;2023-05-07T00:29:16;5.43;;;1.90;;
6109;SDS011;3085;49.444;11.054;2023-05-07T00:31:42;9.13;;;2.10;;
6109;SDS011;3085;49.444;11.054;2023-05-07T00:34:09;2.13;;;1.60;;
6109;SDS011;3085;49.444;11.054;2023-05-07T00:36:36;2.67;;;1.90;;
6109;SDS011;3085;49.444;11.054;2023-05-07T00:39:03;2.73;;;2.10;;
6109;SDS011;3085;49.444;11.054;2023-05-07T00:41:31;2.87;;;2.17;;
6109;SDS011;3085;49.444;11.054;2023-05-07T00:43:58;4.50;;;1.83;;
6109;SDS011;3085;49.444;11.054;2023-05-07T00:46:27;2.57;;;2.00;;
6109;SDS011;3085;49.444;11.054;2023-05-07T00:48:55;3.17;;;1.80;;
6109;SDS011;3085;49.444;11.054;2023-05-07T00:51:22;3.40;;;2.23;;
6109;SDS011;3085;49.444;11.054;2023-05-07T00:53:49;3.10;;;2.00;;
6109;SDS011;3085;49.444;11.054;2023-05-07T00:56:16;3.00;;;1.80;;
6109;SDS011;3085;49.444;11.054;2023-05-07T00:58:45;2.40;;;1.63;;
6109;SDS011;3085;49.444;11.054;2023-05-07T01:01:12;3.63;;;2.20;;
6109;SDS011;3085;49.444;11.054;2023-05-07T01:03:40;5.07;;;2.10;;
6109;SDS011;3085;49.444;11.054;2023-05-07T01:06:07;3.50;;;2.30;;
6109;SDS011;3085;49.444;11.054;2023-05-07T01:08:37;2.40;;;1.60;;
6109;SDS011;3085;49.444;11.054;2023-05-07T01:11:05;2.30;;;2.03;;
6109;SDS011;3085;49.444;11.054;2023-05-07T01:13:33;2.43;;;1.50;;
6109;SDS011;3085;49.444;11.054;2023-05-07T01:16:03;4.20;;;1.83;;
6109;SDS011;3085;49.444;11.054;2023-05-07T01:18:30;7.90;;;2.00;;
6109;SDS011;3085;49.444;11.054;2023-05-07T01:20:58;6.13;;;2.50;;
6109;SDS011;3085;49.444;11.054;2023-05-07T01:23:26;2.27;;;1.80;;
6109;SDS011;3085;49.444;11.054;2023-05-07T01:25:54;2.80;;;1.90;;
6109;SDS011;3085;49.444;11.054;2023-05-07T01:28:21;2.73;;;1.87;;
6109;SDS011;3085;49.444;11.054;2023-05-07T01:30:53;5.20;;;2.20;;
6109;SDS011;3085;49.444;11.054;2023-05-07T01:33:26;2.20;;;1.70;;
6109;SDS011;3085;49.444;11.054;2023-05-07T01:35:57;2.30;;;1.80;;
6109;SDS011;3085;49.444;11.054;2023-05-07T01:38:28;4.60;;;1.70;;
6109;SDS011;3085;49.444;11.054;2023-05-07T01:40:55;2.00;;;1.80;;
6109;SDS011;3085;49.444;11.054;2023-05-07T01:43:23;4.10;;;1.60;;
6109;SDS011;3085;49.444;11.054;2023-05-07T01:45:50;1.93;;;1.60;;
6109;SDS011;3085;49.444;11.054;2023-05-07T01:48:17;3.60;;;2.00;;
6109;SDS011;3085;49.444;11.054;2023-05-07T01:50:45;2.30;;;2.10;;
6109;SDS011;3085;49.444;11.054;2023-05-07T01:53:12;8.93;;;2.03;;
6109;SDS011;3085;49.444;11.054;2023-05-07T01:55:40;3.60;;;2.20;;
6109;SDS011;3085;49.444;11.054;2023-05-07T01:58:07;2.40;;;1.93;;
6109;SDS011;3085;49.444;11.054;2023-05-07T02:00:34;2.80;;;2.30;;
6109;SDS011;3085;49.444;11.054;2023-05-07T02:03:01;2.90;;;1.80;;
6109;SDS011;3085;49.444;11.054;2023-05-07T02:05:27;2.90;;;1.93;;
6109;SDS011;3085;49.444;11.054;2023-05-07T02:07:54;5.97;;;2.70;;
6109;SDS011;3085;49.444;11.054;2023-05-07T02:10:21;2.73;;;1.80;;
6109;SDS011;3085;49.444;11.054;2023-05-07T02:12:50;3.20;;;2.00;;
6109;SDS011;3085;49.444;11.054;2023-05-07T02:15:16;2.00;;;1.77;;
6109;SDS011;3085;49.444;11.054;2023-05-07T02:17:57;4.87;;;2.00;;
6109;SDS011;3085;49.444;11.054;2023-05-07T02:20:25;6.00;;;2.60;;
6109;SDS011;3085;49.444;11.054;2023-05-07T02:22:52;3.10;;;1.93;;
6109;SDS011;3085;49.444;11.054;2023-05-07T02:25:19;5.10;;;2.27;;
6109;SDS011;3085;49.444;11.054;2023-05-07T02:27:46;6.40;;;2.40;;
6109;SDS011;3085;49.444;11.054;2023-05-07T02:30:15;4.43;;;2.27;;
6109;SDS011;3085;49.444;11.054;2023-05-07T02:32:42;5.37;;;3.57;;
6109;SDS011;3085;49.444;11.054;2023-05-07T02:35:09;2.63;;;2.07;;
6109;SDS011;3085;49.444;11.054;2023-05-07T02:37:36;2.60;;;2.00;;
6109;SDS011;3085;49.444;11.054;2023-05-07T02:40:03;3.20;;;2.07;;
6109;SDS011;3085;49.444;11.054;2023-05-07T02:42:30;3.10;;;2.07;;
6109;SDS011;3085;49.444;11.054;2023-05-07T02:44:57;3.37;;;2.40;;
6109;SDS011;3085;49.444;11.054;2023-05-07T02:47:26;2.87;;;2.10;;
6109;SDS011;3085;49.444;11.054;2023-05-07T02:49:53;4.30;;;2.53;;
6109;SDS011;3085;49.444;11.054;2023-05-07T02:52:20;4.43;;;2.40;;
6109;SDS011;3085;49.444;11.054;2023-05-07T02:54:47;4.20;;;2.53;;
6109;SDS011;3085;49.444;11.054;2023-05-07T02:57:14;6.90;;;2.90;;
6109;SDS011;3085;49.444;11.054;2023-05-07T02:59:41;6.00;;;2.77;;
6109;SDS011;3085;49.444;11.054;2023-05-07T03:02:08;4.00;;;2.63;;
6109;SDS011;3085;49.444;11.054;2023-05-07T03:04:36;4.20;;;2.80;;
6109;SDS011;3085;49.444;11.054;2023-05-07T03:07:03;3.67;;;2.37;;
6109;SDS011;3085;49.444;11.054;2023-05-07T03:09:30;3.60;;;2.53;;
6109;SDS011;3085;49.444;11.054;2023-05-07T03:11:57;4.97;;;3.07;;
6109;SDS011;3085;49.444;11.054;2023-05-07T03:14:24;4.10;;;2.53;;
6109;SDS011;3085;49.444;11.054;2023-05-07T03:16:51;4.93;;;3.07;;
6109;SDS011;3085;49.444;11.054;2023-05-07T03:19:17;4.67;;;3.27;;
6109;SDS011;3085;49.444;11.054;2023-05-07T03:21:46;3.80;;;2.50;;
6109;SDS011;3085;49.444;11.054;2023-05-07T03:24:13;4.27;;;2.63;;
6109;SDS011;3085;49.444;11.054;2023-05-07T03:26:40;5.90;;;2.77;;
6109;SDS011;3085;49.444;11.054;2023-05-07T03:29:07;3.70;;;2.70;;
6109;SDS011;3085;49.444;11.054;2023-05-07T03:31:33;3.70;;;2.60;;
6109;SDS011;3085;49.444;11.054;2023-05-07T03:34:00;5.30;;;3.20;;
6109;SDS011;3085;49.444;11.054;2023-05-07T03:36:27;3.40;;;2.60;;
6109;SDS011;3085;49.444;11.054;2023-05-07T03:38:55;6.23;;;3.57;;
6109;SDS011;3085;49.444;11.054;2023-05-07T03:41:22;5.67;;;3.53;;
6109;SDS011;3085;49.444;11.054;2023-05-07T03:43:50;5.07;;;3.00;;
6109;SDS011;3085;49.444;11.054;2023-05-07T03:46:17;8.90;;;2.77;;
6109;SDS011;3085;49.444;11.054;2023-05-07T03:48:44;5.10;;;3.17;;
6109;SDS011;3085;49.444;11.054;2023-05-07T03:51:11;6.93;;;3.63;;
6109;SDS011;3085;49.444;11.054;2023-05-07T03:53:38;6.60;;;3.10;;
6109;SDS011;3085;49.444;11.054;2023-05-07T03:56:06;5.73;;;3.00;;
6109;SDS011;3085;49.444;11.054;2023-05-07T03:58:33;7.03;;;3.30;;
6109;SDS011;3085;49.444;11.054;2023-05-07T04:01:00;5.10;;;3.03;;
6109;SDS011;3085;49.444;11.054;2023-05-07T04:03:27;3.80;;;2.53;;
6109;SDS011;3085;49.444;11.054;2023-05-07T04:05:55;6.33;;;3.10;;
6109;SDS011;3085;49.444;11.054;2023-05-07T04:08:22;6.23;;;3.60;;
6109;SDS011;3085;49.444;11.054;2023-05-07T04:10:54;3.57;;;3.00;;
6109;SDS011;3085;49.444;11.054;2023-05-07T04:13:22;3.50;;;3.20;;
6109;SDS011;3085;49.444;11.054;2023-05-07T04:15:49;5.07;;;3.10;;
6109;SDS011;3085;49.444;11.054;2023-05-07T04:18:17;5.20;;;3.03;;
6109;SDS011;3085;49.444;11.054;2023-05-07T04:20:44;4.43;;;2.40;;
6109;SDS011;3085;49.444;11.054;2023-05-07T04:23:11;4.27;;;2.77;;
6109;SDS011;3085;49.444;11.054;2023-05-07T04:25:38;5.20;;;3.00;;
6109;SDS011;3085;49.444;11.054;2023-05-07T04:28:05;5.60;;;3.30;;
6109;SDS011;3085;49.444;11.054;2023-05-07T04:30:35;5.07;;;3.30;;
6109;SDS011;3085;49.444;11.054;2023-05-07T04:33:03;3.57;;;2.70;;
6109;SDS011;3085;49.444;11.054;2023-05-07T04:35:31;7.30;;;3.37;;
6109;SDS011;3085;49.444;11.054;2023-05-07T04:37:58;6.00;;;3.03;;
6109;SDS011;3085;49.444;11.054;2023-05-07T04:40:26;15.43;;;3.27;;
6109;SDS011;3085;49.444;11.054;2023-05-07T04:42:53;6.67;;;3.90;;
6109;SDS011;3085;49.444;11.054;2023-05-07T04:45:20;5.23;;;3.67;;
6109;SDS011;3085;49.444;11.054;2023-05-07T04:47:49;4.50;;;3.30;;
6109;SDS011;3085;49.444;11.054;2023-05-07T04:50:16;5.10;;;3.73;;
6109;SDS011;3085;49.444;11.054;2023-05-07T04:52:44;17.50;;;3.80;;
6109;SDS011;3085;49.444;11.054;2023-05-07T04:55:11;5.63;;;3.83;;
6109;SDS011;3085;49.444;11.054;2023-05-07T04:57:38;6.17;;;3.83;;
6109;SDS011;3085;49.444;11.054;2023-05-07T05:00:06;4.90;;;3.40;;
6109;SDS011;3085;49.444;11.054;2023-05-07T05:02:35;7.07;;;3.60;;
6109;SDS011;3085;49.444;11.054;2023-05-07T05:05:03;7.33;;;3.53;;
6109;SDS011;3085;49.444;11.054;2023-05-07T05:07:30;6.20;;;3.90;;
6109;SDS011;3085;49.444;11.054;2023-05-07T05:09:57;8.03;;;4.23;;
6109;SDS011;3085;49.444;11.054;2023-05-07T05:12:24;8.10;;;4.43;;
6109;SDS011;3085;49.444;11.054;2023-05-07T05:14:52;10.90;;;4.17;;
6109;SDS011;3085;49.444;11.054;2023-05-07T05:17:18;7.40;;;3.87;;
6109;SDS011;3085;49.444;11.054;2023-05-07T05:19:45;10.27;;;4.70;;
6109;SDS011;3085;49.444;11.054;2023-05-07T05:22:13;7.20;;;4.20;;
6109;SDS011;3085;49.444;11.054;2023-05-07T05:24:40;5.93;;;3.93;;
6109;SDS011;3085;49.444;11.054;2023-05-07T05:27:07;9.87;;;4.50;;
6109;SDS011;3085;49.444;11.054;2023-05-07T05:29:34;4.63;;;3.40;;
6109;SDS011;3085;49.444;11.054;2023-05-07T05:32:01;6.70;;;4.30;;
6109;SDS011;3085;49.444;11.054;2023-05-07T05:34:28;6.33;;;4.47;;
6109;SDS011;3085;49.444;11.054;2023-05-07T05:36:55;7.90;;;4.63;;
6109;SDS011;3085;49.444;11.054;2023-05-07T05:39:23;9.60;;;4.67;;
6109;SDS011;3085;49.444;11.054;2023-05-07T05:41:50;8.80;;;5.10;;
6109;SDS011;3085;49.444;11.054;2023-05-07T05:44:17;10.20;;;4.83;;
6109;SDS011;3085;49.444;11.054;2023-05-07T05:46:43;6.43;;;4.53;;
6109;SDS011;3085;49.444;11.054;2023-05-07T05:49:10;7.40;;;4.53;;
6109;SDS011;3085;49.444;11.054;2023-05-07T05:51:38;10.00;;;4.70;;
6109;SDS011;3085;49.444;11.054;2023-05-07T05:54:04;8.27;;;4.60;;
6109;SDS011;3085;49.444;11.054;2023-05-07T05:56:33;11.77;;;5.40;;
6109;SDS011;3085;49.444;11.054;2023-05-07T05:59:01;10.33;;;4.10;;
6109;SDS011;3085;49.444;11.054;2023-05-07T06:01:28;10.03;;;4.20;;
6109;SDS011;3085;49.444;11.054;2023-05-07T06:03:56;8.30;;;4.93;;
6109;SDS011;3085;49.444;11.054;2023-05-07T06:06:22;6.63;;;4.00;;
6109;SDS011;3085;49.444;11.054;2023-05-07T06:08:49;7.23;;;4.63;;
6109;SDS011;3085;49.444;11.054;2023-05-07T06:11:16;8.10;;;4.77;;
6109;SDS011;3085;49.444;11.054;2023-05-07T06:13:45;6.80;;;4.30;;
6109;SDS011;3085;49.444;11.054;2023-05-07T06:16:11;7.20;;;4.93;;
6109;SDS011;3085;49.444;11.054;2023-05-07T06:18:38;6.27;;;4.43;;
6109;SDS011;3085;49.444;11.054;2023-05-07T06:21:05;10.00;;;4.97;;
6109;SDS011;3085;49.444;11.054;2023-05-07T06:23:32;7.20;;;4.43;;
6109;SDS011;3085;49.444;11.054;2023-05-07T06:25:59;7.63;;;4.30;;
6109;SDS011;3085;49.444;11.054;2023-05-07T06:28:26;14.13;;;5.30;;
6109;SDS011;3085;49.444;11.054;2023-05-07T06:30:54;5.90;;;4.67;;
6109;SDS011;3085;49.444;11.054;2023-05-07T06:33:21;8.53;;;4.53;;
6109;SDS011;3085;49.444;11.054;2023-05-07T06:35:48;10.03;;;5.30;;
6109;SDS011;3085;49.444;11.054;2023-05-07T06:38:15;8.90;;;5.00;;
6109;SDS011;3085;49.444;11.054;2023-05-07T06:40:42;5.50;;;3.90;;
6109;SDS011;3085;49.444;11.054;2023-05-07T06:43:09;7.37;;;4.90;;
6109;SDS011;3085;49.444;11.054;2023-05-07T06:45:36;6.57;;;4.03;;
6109;SDS011;3085;49.444;11.054;2023-05-07T06:48:04;11.60;;;5.47;;
6109;SDS011;3085;49.444;11.054;2023-05-07T06:50:31;8.70;;;5.20;;
6109;SDS011;3085;49.444;11.054;2023-05-07T06:52:58;7.77;;;4.10;;
6109;SDS011;3085;49.444;11.054;2023-05-07T06:55:25;6.43;;;4.53;;
6109;SDS011;3085;49.444;11.054;2023-05-07T06:57:52;6.90;;;4.10;;
6109;SDS011;3085;49.444;11.054;2023-05-07T07:00:19;4.50;;;3.83;;
6109;SDS011;3085;49.444;11.054;2023-05-07T07:02:46;7.00;;;4.50;;
6109;SDS011;3085;49.444;11.054;2023-05-07T07:05:15;6.53;;;3.83;;
6109;SDS011;3085;49.444;11.054;2023-05-07T07:07:41;6.90;;;4.17;;
6109;SDS011;3085;49.444;11.054;2023-05-07T07:10:09;8.60;;;4.40;;
6109;SDS011;3085;49.444;11.054;2023-05-07T07:12:36;7.53;;;4.77;;
6109;SDS011;3085;49.444;11.054;2023-05-07T07:15:03;5.73;;;3.70;;
6109;SDS011;3085;49.444;11.054;2023-05-07T07:17:31;15.20;;;5.00;;
6109;SDS011;3085;49.444;11.054;2023-05-07T07:19:58;5.17;;;3.87;;
6109;SDS011;3085;49.444;11.054;2023-05-07T07:22:26;23.30;;;8.73;;
6109;SDS011;3085;49.444;11.054;2023-05-07T07:24:53;13.00;;;5.87;;
6109;SDS011;3085;49.444;11.054;2023-05-07T07:27:20;9.43;;;5.73;;
6109;SDS011;3085;49.444;11.054;2023-05-07T07:29:47;8.10;;;4.37;;
6109;SDS011;3085;49.444;11.054;2023-05-07T07:32:14;8.23;;;4.50;;
6109;SDS011;3085;49.444;11.054;2023-05-07T07:34:41;10.93;;;3.77;;
6109;SDS011;3085;49.444;11.054;2023-05-07T07:37:08;5.83;;;3.93;;
6109;SDS011;3085;49.444;11.054;2023-05-07T07:39:36;5.00;;;3.70;;
6109;SDS011;3085;49.444;11.054;2023-05-07T07:42:03;6.43;;;4.37;;
6109;SDS011;3085;49.444;11.054;2023-05-07T07:44:30;6.77;;;4.63;;
6109;SDS011;3085;49.444;11.054;2023-05-07T07:46:57;11.73;;;5.47;;
6109;SDS011;3085;49.444;11.054;2023-05-07T07:49:24;12.57;;;5.10;;
6109;SDS011;3085;49.444;11.054;2023-05-07T07:51:51;7.20;;;4.40;;
6109;SDS011;3085;49.444;11.054;2023-05-07T07:54:18;7.30;;;3.60;;
6109;SDS011;3085;49.444;11.054;2023-05-07T07:56:46;5.70;;;4.20;;
6109;SDS011;3085;49.444;11.054;2023-05-07T07:59:13;6.03;;;4.10;;
6109;SDS011;3085;49.444;11.054;2023-05-07T08:01:43;8.63;;;3.60;;
6109;SDS011;3085;49.444;11.054;2023-05-07T08:04:10;8.60;;;4.87;;
6109;SDS011;3085;49.444;11.054;2023-05-07T08:06:37;6.90;;;4.43;;
6109;SDS011;3085;49.444;11.054;2023-05-07T08:09:04;7.43;;;4.60;;
6109;SDS011;3085;49.444;11.054;2023-05-07T08:11:31;8.70;;;4.70;;
6109;SDS011;3085;49.444;11.054;2023-05-07T08:14:00;8.70;;;3.93;;
6109;SDS011;3085;49.444;11.054;2023-05-07T08:16:28;8.80;;;4.60;;
6109;SDS011;3085;49.444;11.054;2023-05-07T08:18:55;8.63;;;4.17;;
6109;SDS011;3085;49.444;11.054;2023-05-07T08:21:22;7.33;;;3.83;;
6109;SDS011;3085;49.444;11.054;2023-05-07T08:23:49;8.77;;;3.93;;
6109;SDS011;3085;49.444;11.054;2023-05-07T08:26:16;6.70;;;4.07;;
6109;SDS011;3085;49.444;11.054;2023-05-07T08:28:43;8.10;;;4.43;;
6109;SDS011;3085;49.444;11.054;2023-05-07T08:31:11;10.60;;;4.67;;
6109;SDS011;3085;49.444;11.054;2023-05-07T08:33:38;8.37;;;3.20;;
6109;SDS011;3085;49.444;11.054;2023-05-07T08:36:05;6.17;;;3.30;;
6109;SDS011;3085;49.444;11.054;2023-05-07T08:38:32;6.50;;;3.73;;
6109;SDS011;3085;49.444;11.054;2023-05-07T08:40:59;7.47;;;4.20;;
6109;SDS011;3085;49.444;11.054;2023-05-07T08:43:26;10.23;;;4.23;;
6109;SDS011;3085;49.444;11.054;2023-05-07T08:45:54;7.30;;;4.43;;
6109;SDS011;3085;49.444;11.054;2023-05-07T08:48:24;5.20;;;3.60;;
6109;SDS011;3085;49.444;11.054;2023-05-07T08:50:53;4.90;;;3.37;;
6109;SDS011;3085;49.444;11.054;2023-05-07T08:53:20;6.67;;;3.80;;
6109;SDS011;3085;49.444;11.054;2023-05-07T08:55:48;9.20;;;4.50;;
6109;SDS011;3085;49.444;11.054;2023-05-07T08:58:15;5.93;;;3.50;;
6109;SDS011;3085;49.444;11.054;2023-05-07T09:00:42;12.50;;;3.60;;
6109;SDS011;3085;49.444;11.054;2023-05-07T09:03:09;3.63;;;3.00;;
6109;SDS011;3085;49.444;11.054;2023-05-07T09:05:39;6.20;;;3.30;;
6109;SDS011;3085;49.444;11.054;2023-05-07T09:08:06;6.10;;;3.80;;
6109;SDS011;3085;49.444;11.054;2023-05-07T09:10:34;5.67;;;3.13;;
6109;SDS011;3085;49.444;11.054;2023-05-07T09:13:02;8.70;;;2.67;;
6109;SDS011;3085;49.444;11.054;2023-05-07T09:15:29;8.13;;;3.20;;
6109;SDS011;3085;49.444;11.054;2023-05-07T09:17:59;5.43;;;3.10;;
6109;SDS011;3085;49.444;11.054;2023-05-07T09:20:27;8.03;;;3.23;;
6109;SDS011;3085;49.444;11.054;2023-05-07T09:22:57;5.73;;;3.10;;
6109;SDS011;3085;49.444;11.054;2023-05-07T09:25:28;3.17;;;2.70;;
6109;SDS011;3085;49.444;11.054;2023-05-07T09:27:56;4.70;;;2.70;;
6109;SDS011;3085;49.444;11.054;2023-05-07T09:30:23;8.93;;;3.30;;
6109;SDS011;3085;49.444;11.054;2023-05-07T09:32:53;3.30;;;2.33;;
6109;SDS011;3085;49.444;11.054;2023-05-07T09:35:20;3.23;;;2.43;;
6109;SDS011;3085;49.444;11.054;2023-05-07T09:37:49;3.37;;;2.73;;
6109;SDS011;3085;49.444;11.054;2023-05-07T09:40:21;5.03;;;3.27;;
6109;SDS011;3085;49.444;11.054;2023-05-07T09:42:49;7.03;;;3.50;;
6109;SDS011;3085;49.444;11.054;2023-05-07T09:45:16;15.97;;;3.53;;
6109;SDS011;3085;49.444;11.054;2023-05-07T09:47:47;6.07;;;3.83;;
6109;SDS011;3085;49.444;11.054;2023-05-07T09:50:15;15.10;;;3.23;;
6109;SDS011;3085;49.444;11.054;2023-05-07T09:52:43;2.97;;;2.47;;
6109;SDS011;3085;49.444;11.054;2023-05-07T09:55:11;5.80;;;3.30;;
6109;SDS011;3085;49.444;11.054;2023-05-07T09:57:40;5.90;;;3.50;;
6109;SDS011;3085;49.444;11.054;2023-05-07T10:00:09;4.53;;;3.03;;
6109;SDS011;3085;49.444;11.054;2023-05-07T10:02:38;5.50;;;3.07;;
6109;SDS011;3085;49.444;11.054;2023-05-07T10:05:11;6.43;;;3.47;;
6109;SDS011;3085;49.444;11.054;2023-05-07T10:07:40;5.20;;;3.07;;
6109;SDS011;3085;49.444;11.054;2023-05-07T10:10:07;6.17;;;3.70;;
6109;SDS011;3085;49.444;11.054;2023-05-07T10:12:34;4.33;;;3.07;;
6109;SDS011;3085;49.444;11.054;2023-05-07T10:15:06;7.00;;;3.10;;
6109;SDS011;3085;49.444;11.054;2023-05-07T10:17:35;6.23;;;3.57;;
6109;SDS011;3085;49.444;11.054;2023-05-07T10:20:03;3.50;;;2.10;;
6109;SDS011;3085;49.444;11.054;2023-05-07T10:22:31;3.53;;;2.30;;
6109;SDS011;3085;49.444;11.054;2023-05-07T10:25:04;3.30;;;2.47;;
6109;SDS011;3085;49.444;11.054;2023-05-07T10:27:36;4.20;;;2.70;;
6109;SDS011;3085;49.444;11.054;2023-05-07T10:30:07;6.27;;;3.80;;
6109;SDS011;3085;49.444;11.054;2023-05-07T10:32:45;5.80;;;3.10;;
6109;SDS011;3085;49.444;11.054;2023-05-07T10:35:16;9.00;;;3.07;;
6109;SDS011;3085;49.444;11.054;2023-05-07T10:37:45;5.00;;;3.10;;
6109;SDS011;3085;49.444;11.054;2023-05-07T10:40:12;3.33;;;2.37;;
6109;SDS011;3085;49.444;11.054;2023-05-07T10:42:52;3.50;;;2.70;;
6109;SDS011;3085;49.444;11.054;2023-05-07T10:45:22;4.63;;;2.70;;
6109;SDS011;3085;49.444;11.054;2023-05-07T10:48:06;2.80;;;2.33;;
6109;SDS011;3085;49.444;11.054;2023-05-07T10:50:37;7.00;;;3.03;;
6109;SDS011;3085;49.444;11.054;2023-05-07T10:53:20;3.43;;;2.50;;
6109;SDS011;3085;49.444;11.054;2023-05-07T10:58:52;10.00;;;3.33;;
6109;SDS011;3085;49.444;11.054;2023-05-07T11:04:24;4.80;;;3.10;;
6109;SDS011;3085;49.444;11.054;2023-05-07T11:09:56;3.90;;;2.63;;
6109;SDS011;3085;49.444;11.054;2023-05-07T11:15:32;6.73;;;3.40;;
6109;SDS011;3085;49.444;11.054;2023-05-07T11:18:03;3.80;;;2.87;;
6109;SDS011;3085;49.444;11.054;2023-05-07T11:20:45;4.00;;;2.80;;
6109;SDS011;3085;49.444;11.054;2023-05-07T11:26:31;5.10;;;3.30;;
6109;SDS011;3085;49.444;11.054;2023-05-07T11:29:13;7.40;;;2.80;;
6109;SDS011;3085;49.444;11.054;2023-05-07T11:31:41;6.90;;;2.00;;
6109;SDS011;3085;49.444;11.054;2023-05-07T11:34:08;5.83;;;2.37;;
6109;SDS011;3085;49.444;11.054;2023-05-07T11:36:42;3.10;;;2.47;;
6109;SDS011;3085;49.444;11.054;2023-05-07T11:39:29;2.80;;;2.37;;
6109;SDS011;3085;49.444;11.054;2023-05-07T11:41:58;4.50;;;3.03;;
6109;SDS011;3085;49.444;11.054;2023-05-07T11:44:38;5.77;;;2.60;;
6109;SDS011;3085;49.444;11.054;2023-05-07T11:47:09;4.80;;;2.70;;
6109;SDS011;3085;49.444;11.054;2023-05-07T11:49:36;5.47;;;3.27;;
6109;SDS011;3085;49.444;11.054;2023-05-07T11:52:05;6.10;;;3.00;;
6109;SDS011;3085;49.444;11.054;2023-05-07T11:54:34;3.80;;;2.47;;
6109;SDS011;3085;49.444;11.054;2023-05-07T11:57:02;7.60;;;2.17;;
6109;SDS011;3085;49.444;11.054;2023-05-07T11:59:30;4.10;;;3.07;;
6109;SDS011;3085;49.444;11.054;2023-05-07T12:02:05;3.73;;;1.90;;
6109;SDS011;3085;49.444;11.054;2023-05-07T12:04:32;2.60;;;2.20;;
6109;SDS011;3085;49.444;11.054;2023-05-07T12:06:59;3.77;;;2.60;;
6109;SDS011;3085;49.444;11.054;2023-05-07T12:09:27;2.50;;;1.90;;
6109;SDS011;3085;49.444;11.054;2023-05-07T12:11:54;5.13;;;2.47;;
6109;SDS011;3085;49.444;11.054;2023-05-07T12:14:21;4.00;;;2.03;;
6109;SDS011;3085;49.444;11.054;2023-05-07T12:16:53;8.03;;;2.30;;
6109;SDS011;3085;49.444;11.054;2023-05-07T12:19:20;5.57;;;2.10;;
6109;SDS011;3085;49.444;11.054;2023-05-07T12:21:48;3.03;;;1.70;;
6109;SDS011;3085;49.444;11.054;2023-05-07T12:24:16;2.83;;;2.33;;
6109;SDS011;3085;49.444;11.054;2023-05-07T12:26:44;3.27;;;2.23;;
6109;SDS011;3085;49.444;11.054;2023-05-07T12:29:11;7.40;;;2.07;;
6109;SDS011;3085;49.444;11.054;2023-05-07T12:31:40;5.10;;;2.67;;
6109;SDS011;3085;49.444;11.054;2023-05-07T12:34:07;3.70;;;2.43;;
6109;SDS011;3085;49.444;11.054;2023-05-07T12:36:36;6.40;;;2.27;;
6109;SDS011;3085;49.444;11.054;2023-05-07T12:39:04;3.60;;;2.60;;
6109;SDS011;3085;49.444;11.054;2023-05-07T12:41:35;4.13;;;2.40;;
6109;SDS011;3085;49.444;11.054;2023-05-07T12:44:19;5.80;;;2.90;;
6109;SDS011;3085;49.444;11.054;2023-05-07T12:46:48;4.63;;;2.80;;
6109;SDS011;3085;49.444;11.054;2023-05-07T12:49:15;7.70;;;2.83;;
6109;SDS011;3085;49.444;11.054;2023-05-07T12:51:43;3.47;;;2.30;;
6109;SDS011;3085;49.444;11.054;2023-05-07T12:54:09;8.17;;;2.83;;
6109;SDS011;3085;49.444;11.054;2023-05-07T12:56:36;3.13;;;2.07;;
6109;SDS011;3085;49.444;11.054;2023-05-07T12:59:03;4.13;;;2.47;;
6109;SDS011;3085;49.444;11.054;2023-05-07T13:01:33;3.60;;;3.30;;
6109;SDS011;3085;49.444;11.054;2023-05-07T13:04:01;5.67;;;3.03;;
6109;SDS011;3085;49.444;11.054;2023-05-07T13:06:30;4.20;;;2.50;;
6109;SDS011;3085;49.444;11.054;2023-05-07T13:08:57;4.20;;;2.73;;
6109;SDS011;3085;49.444;11.054;2023-05-07T13:11:24;2.60;;;2.10;;
6109;SDS011;3085;49.444;11.054;2023-05-07T13:13:51;6.60;;;3.50;;
6109;SDS011;3085;49.444;11.054;2023-05-07T13:16:18;7.77;;;2.50;;
6109;SDS011;3085;49.444;11.054;2023-05-07T13:18:46;5.67;;;2.70;;
6109;SDS011;3085;49.444;11.054;2023-05-07T13:21:13;6.70;;;3.10;;
6109;SDS011;3085;49.444;11.054;2023-05-07T13:23:40;4.30;;;2.70;;
6109;SDS011;3085;49.444;11.054;2023-05-07T13:26:07;3.93;;;2.73;;
6109;SDS011;3085;49.444;11.054;2023-05-07T13:28:35;2.47;;;1.97;;
6109;SDS011;3085;49.444;11.054;2023-05-07T13:31:02;3.50;;;2.17;;
6109;SDS011;3085;49.444;11.054;2023-05-07T13:33:29;3.00;;;2.20;;
6109;SDS011;3085;49.444;11.054;2023-05-07T13:35:57;3.30;;;2.53;;
6109;SDS011;3085;49.444;11.054;2023-05-07T13:38:25;4.60;;;2.73;;
6109;SDS011;3085;49.444;11.054;2023-05-07T13:40:52;4.30;;;2.43;;
6109;SDS011;3085;49.444;11.054;2023-05-07T13:43:19;7.10;;;2.47;;
6109;SDS011;3085;49.444;11.054;2023-05-07T13:45:46;5.13;;;2.73;;
6109;SDS011;3085;49.444;11.054;2023-05-07T13:48:13;5.07;;;2.50;;
6109;SDS011;3085;49.444;11.054;2023-05-07T13:50:40;5.30;;;2.70;;
6109;SDS011;3085;49.444;11.054;2023-05-07T13:53:08;5.73;;;3.23;;
6109;SDS011;3085;49.444;11.054;2023-05-07T13:55:35;3.57;;;2.63;;
6109;SDS011;3085;49.444;11.054;2023-05-07T13:58:06;9.30;;;3.03;;
6109;SDS011;3085;49.444;11.054;2023-05-07T14:00:32;3.70;;;2.40;;
6109;SDS011;3085;49.444;11.054;2023-05-07T14:02:59;5.20;;;2.73;;
6109;SDS011;3085;49.444;11.054;2023-05-07T14:05:26;7.07;;;3.30;;
6109;SDS011;3085;49.444;11.054;2023-05-07T14:07:53;5.27;;;3.47;;
6109;SDS011;3085;49.444;11.054;2023-05-07T14:10:23;5.63;;;2.73;;
6109;SDS011;3085;49.444;11.054;2023-05-07T14:12:50;5.20;;;3.00;;
6109;SDS011;3085;49.444;11.054;2023-05-07T14:15:17;6.17;;;2.83;;
6109;SDS011;3085;49.444;11.054;2023-05-07T14:17:44;3.40;;;2.20;;
6109;SDS011;3085;49.444;11.054;2023-05-07T14:20:12;4.73;;;3.10;;
6109;SDS011;3085;49.444;11.054;2023-05-07T14:22:39;4.47;;;3.10;;
6109;SDS011;3085;49.444;11.054;2023-05-07T14:25:06;2.43;;;2.07;;
6109;SDS011;3085;49.444;11.054;2023-05-07T14:27:35;6.27;;;2.40;;
6109;SDS011;3085;49.444;11.054;2023-05-07T14:30:02;3.60;;;2.50;;
6109;SDS011;3085;49.444;11.054;2023-05-07T14:32:29;4.77;;;2.70;;
6109;SDS011;3085;49.444;11.054;2023-05-07T14:34:56;6.13;;;3.43;;
6109;SDS011;3085;49.444;11.054;2023-05-07T14:37:23;4.30;;;2.53;;
6109;SDS011;3085;49.444;11.054;2023-05-07T14:39:50;3.27;;;2.50;;
6109;SDS011;3085;49.444;11.054;2023-05-07T14:42:17;2.73;;;2.27;;
6109;SDS011;3085;49.444;11.054;2023-05-07T14:44:45;2.57;;;2.07;;
6109;SDS011;3085;49.444;11.054;2023-05-07T14:47:13;4.00;;;2.97;;
6109;SDS011;3085;49.444;11.054;2023-05-07T14:49:40;4.83;;;2.63;;
6109;SDS011;3085;49.444;11.054;2023-05-07T14:52:10;4.10;;;2.80;;
6109;SDS011;3085;49.444;11.054;2023-05-07T14:54:37;9.27;;;2.80;;
6109;SDS011;3085;49.444;11.054;2023-05-07T14:57:04;4.70;;;2.60;;
6109;SDS011;3085;49.444;11.054;2023-05-07T14:59:32;3.83;;;2.83;;
6109;SDS011;3085;49.444;11.054;2023-05-07T15:02:00;3.57;;;2.73;;
6109;SDS011;3085;49.444;11.054;2023-05-07T15:04:27;2.97;;;2.50;;
6109;SDS011;3085;49.444;11.054;2023-05-07T15:06:54;7.17;;;2.80;;
6109;SDS011;3085;49.444;11.054;2023-05-07T15:09:21;4.63;;;3.03;;
6109;SDS011;3085;49.444;11.054;2023-05-07T15:11:54;4.90;;;3.20;;
6109;SDS011;3085;49.444;11.054;2023-05-07T15:14:22;4.87;;;3.17;;
6109;SDS011;3085;49.444;11.054;2023-05-07T15:16:48;7.60;;;3.77;;
6109;SDS011;3085;49.444;11.054;2023-05-07T15:19:17;6.70;;;3.70;;
6109;SDS011;3085;49.444;11.054;2023-05-07T15:21:43;8.93;;;3.17;;